sensor_id;sensor_type;location;lat;lon;timestamp;P1;durP1;ratioP1;P2;durP2;ratioP2
9214;SDS011;4642;51.364;6.788;2023-07-24T00:02:15;5.77;;;2.67;;
9214;SDS011;4642;51.364;6.788;2023-07-24T00:04:40;4.00;;;2.87;;
9214;SDS011;4642;51.364;6.788;2023-07-24T00:07:06;3.47;;;2.80;;
9214;SDS011;4642;51.364;6.788;2023-07-24T00:09:31;2.60;;;2.40;;
9214;SDS011;4642;51.364;6.788;2023-07-24T00:11:57;6.70;;;2.83;;
9214;SDS011;4642;51.364;6.788;2023-07-24T00:14:22;3.97;;;3.30;;
9214;SDS011;4642;51.364;6.788;2023-07-24T00:16:48;5.87;;;3.03;;
9214;SDS011;4642;51.364;6.788;2023-07-24T00:19:14;3.13;;;2.57;;
9214;SDS011;4642;51.364;6.788;2023-07-24T00:21:39;4.03;;;3.10;;
9214;SDS011;4642;51.364;6.788;2023-07-24T00:24:05;4.27;;;3.13;;
9214;SDS011;4642;51.364;6.788;2023-07-24T00:26:30;3.93;;;2.90;;
9214;SDS011;4642;51.364;6.788;2023-07-24T00:28:56;3.90;;;3.10;;
9214;SDS011;4642;51.364;6.788;2023-07-24T00:31:21;8.87;;;3.20;;
9214;SDS011;4642;51.364;6.788;2023-07-24T00:33:47;4.97;;;3.03;;
9214;SDS011;4642;51.364;6.788;2023-07-24T00:36:12;5.53;;;3.40;;
9214;SDS011;4642;51.364;6.788;2023-07-24T00:38:38;4.00;;;3.30;;
9214;SDS011;4642;51.364;6.788;2023-07-24T00:41:04;5.83;;;2.93;;
9214;SDS011;4642;51.364;6.788;2023-07-24T00:43:30;7.40;;;2.90;;
9214;SDS011;4642;51.364;6.788;2023-07-24T00:45:56;3.83;;;2.80;;
9214;SDS011;4642;51.364;6.788;2023-07-24T00:48:22;4.80;;;2.50;;
9214;SDS011;4642;51.364;6.788;2023-07-24T00:50:48;3.17;;;2.87;;
9214;SDS011;4642;51.364;6.788;2023-07-24T00:53:14;10.03;;;3.17;;
9214;SDS011;4642;51.364;6.788;2023-07-24T00:55:41;8.30;;;3.33;;
9214;SDS011;4642;51.364;6.788;2023-07-24T00:58:07;7.17;;;2.70;;
9214;SDS011;4642;51.364;6.788;2023-07-24T01:00:36;6.97;;;3.20;;
9214;SDS011;4642;51.364;6.788;2023-07-24T01:03:05;4.93;;;2.90;;
9214;SDS011;4642;51.364;6.788;2023-07-24T01:05:31;5.67;;;2.90;;
9214;SDS011;4642;51.364;6.788;2023-07-24T01:07:57;5.43;;;2.93;;
9214;SDS011;4642;51.364;6.788;2023-07-24T01:10:22;6.30;;;2.50;;
9214;SDS011;4642;51.364;6.788;2023-07-24T01:12:51;3.70;;;3.03;;
9214;SDS011;4642;51.364;6.788;2023-07-24T01:18:00;3.53;;;3.10;;
9214;SDS011;4642;51.364;6.788;2023-07-24T01:20:28;4.57;;;2.73;;
9214;SDS011;4642;51.364;6.788;2023-07-24T01:23:04;3.67;;;2.67;;
9214;SDS011;4642;51.364;6.788;2023-07-24T01:25:56;4.90;;;3.20;;
9214;SDS011;4642;51.364;6.788;2023-07-24T01:28:27;5.93;;;3.07;;
9214;SDS011;4642;51.364;6.788;2023-07-24T01:30:53;6.07;;;2.97;;
9214;SDS011;4642;51.364;6.788;2023-07-24T01:33:19;3.70;;;3.00;;
9214;SDS011;4642;51.364;6.788;2023-07-24T01:35:47;4.07;;;2.97;;
9214;SDS011;4642;51.364;6.788;2023-07-24T01:38:15;4.47;;;3.03;;
9214;SDS011;4642;51.364;6.788;2023-07-24T01:40:41;8.63;;;3.40;;
9214;SDS011;4642;51.364;6.788;2023-07-24T01:43:07;3.83;;;2.87;;
9214;SDS011;4642;51.364;6.788;2023-07-24T01:45:33;3.80;;;2.80;;
9214;SDS011;4642;51.364;6.788;2023-07-24T01:47:59;5.27;;;2.73;;
9214;SDS011;4642;51.364;6.788;2023-07-24T01:50:25;9.63;;;3.03;;
9214;SDS011;4642;51.364;6.788;2023-07-24T01:52:50;3.60;;;3.03;;
9214;SDS011;4642;51.364;6.788;2023-07-24T01:55:16;6.20;;;3.00;;
9214;SDS011;4642;51.364;6.788;2023-07-24T01:57:41;3.43;;;2.50;;
9214;SDS011;4642;51.364;6.788;2023-07-24T02:00:07;3.73;;;3.33;;
9214;SDS011;4642;51.364;6.788;2023-07-24T02:02:33;4.00;;;3.50;;
9214;SDS011;4642;51.364;6.788;2023-07-24T02:04:59;5.43;;;3.43;;
9214;SDS011;4642;51.364;6.788;2023-07-24T02:07:24;4.17;;;3.33;;
9214;SDS011;4642;51.364;6.788;2023-07-24T02:09:50;5.50;;;3.17;;
9214;SDS011;4642;51.364;6.788;2023-07-24T02:12:15;5.43;;;3.23;;
9214;SDS011;4642;51.364;6.788;2023-07-24T02:14:41;5.13;;;3.10;;
9214;SDS011;4642;51.364;6.788;2023-07-24T02:17:06;5.30;;;3.23;;
9214;SDS011;4642;51.364;6.788;2023-07-24T02:19:32;6.90;;;3.67;;
9214;SDS011;4642;51.364;6.788;2023-07-24T02:21:57;4.53;;;3.40;;
9214;SDS011;4642;51.364;6.788;2023-07-24T02:24:23;6.47;;;3.70;;
9214;SDS011;4642;51.364;6.788;2023-07-24T02:26:48;6.43;;;3.13;;
9214;SDS011;4642;51.364;6.788;2023-07-24T02:29:14;4.40;;;3.93;;
9214;SDS011;4642;51.364;6.788;2023-07-24T02:31:39;8.23;;;4.70;;
9214;SDS011;4642;51.364;6.788;2023-07-24T02:34:05;8.10;;;3.83;;
9214;SDS011;4642;51.364;6.788;2023-07-24T02:36:31;5.07;;;3.40;;
9214;SDS011;4642;51.364;6.788;2023-07-24T02:38:56;8.60;;;3.90;;
9214;SDS011;4642;51.364;6.788;2023-07-24T02:41:22;6.00;;;3.50;;
9214;SDS011;4642;51.364;6.788;2023-07-24T02:43:47;9.10;;;4.10;;
9214;SDS011;4642;51.364;6.788;2023-07-24T02:46:13;7.80;;;3.60;;
9214;SDS011;4642;51.364;6.788;2023-07-24T02:48:38;7.10;;;3.87;;
9214;SDS011;4642;51.364;6.788;2023-07-24T02:51:04;6.07;;;3.90;;
9214;SDS011;4642;51.364;6.788;2023-07-24T02:53:29;6.37;;;3.60;;
9214;SDS011;4642;51.364;6.788;2023-07-24T02:55:55;8.60;;;4.23;;
9214;SDS011;4642;51.364;6.788;2023-07-24T02:58:20;6.17;;;3.90;;
9214;SDS011;4642;51.364;6.788;2023-07-24T03:00:46;8.90;;;4.33;;
9214;SDS011;4642;51.364;6.788;2023-07-24T03:03:12;8.33;;;4.50;;
9214;SDS011;4642;51.364;6.788;2023-07-24T03:05:37;5.67;;;4.07;;
9214;SDS011;4642;51.364;6.788;2023-07-24T03:08:03;9.70;;;4.30;;
9214;SDS011;4642;51.364;6.788;2023-07-24T03:10:28;11.37;;;4.60;;
9214;SDS011;4642;51.364;6.788;2023-07-24T03:12:54;6.00;;;3.83;;
9214;SDS011;4642;51.364;6.788;2023-07-24T03:15:19;7.17;;;4.50;;
9214;SDS011;4642;51.364;6.788;2023-07-24T03:17:45;8.63;;;4.20;;
9214;SDS011;4642;51.364;6.788;2023-07-24T03:20:17;9.27;;;4.73;;
9214;SDS011;4642;51.364;6.788;2023-07-24T03:22:44;6.10;;;4.60;;
9214;SDS011;4642;51.364;6.788;2023-07-24T03:25:10;5.70;;;4.13;;
9214;SDS011;4642;51.364;6.788;2023-07-24T03:27:36;6.43;;;5.10;;
9214;SDS011;4642;51.364;6.788;2023-07-24T03:30:02;9.17;;;4.63;;
9214;SDS011;4642;51.364;6.788;2023-07-24T03:32:28;7.43;;;4.90;;
9214;SDS011;4642;51.364;6.788;2023-07-24T03:34:54;8.07;;;4.50;;
9214;SDS011;4642;51.364;6.788;2023-07-24T03:37:19;6.47;;;4.53;;
9214;SDS011;4642;51.364;6.788;2023-07-24T03:39:45;7.80;;;5.13;;
9214;SDS011;4642;51.364;6.788;2023-07-24T03:42:10;11.77;;;4.30;;
9214;SDS011;4642;51.364;6.788;2023-07-24T03:44:39;6.03;;;4.30;;
9214;SDS011;4642;51.364;6.788;2023-07-24T03:47:06;6.37;;;4.30;;
9214;SDS011;4642;51.364;6.788;2023-07-24T03:49:31;8.90;;;4.93;;
9214;SDS011;4642;51.364;6.788;2023-07-24T03:51:57;6.93;;;4.03;;
9214;SDS011;4642;51.364;6.788;2023-07-24T03:54:22;9.77;;;4.33;;
9214;SDS011;4642;51.364;6.788;2023-07-24T03:56:48;8.60;;;4.63;;
9214;SDS011;4642;51.364;6.788;2023-07-24T03:59:14;10.20;;;4.43;;
9214;SDS011;4642;51.364;6.788;2023-07-24T04:01:39;8.03;;;4.60;;
9214;SDS011;4642;51.364;6.788;2023-07-24T04:04:05;8.73;;;4.40;;
9214;SDS011;4642;51.364;6.788;2023-07-24T04:06:30;7.67;;;4.63;;
9214;SDS011;4642;51.364;6.788;2023-07-24T04:08:56;7.53;;;4.53;;
9214;SDS011;4642;51.364;6.788;2023-07-24T04:11:21;6.97;;;5.20;;
9214;SDS011;4642;51.364;6.788;2023-07-24T04:13:47;6.47;;;4.70;;
9214;SDS011;4642;51.364;6.788;2023-07-24T04:16:12;12.57;;;5.07;;
9214;SDS011;4642;51.364;6.788;2023-07-24T04:18:38;7.87;;;4.30;;
9214;SDS011;4642;51.364;6.788;2023-07-24T04:21:03;8.60;;;5.00;;
9214;SDS011;4642;51.364;6.788;2023-07-24T04:23:29;9.73;;;5.07;;
9214;SDS011;4642;51.364;6.788;2023-07-24T04:25:54;8.23;;;5.07;;
9214;SDS011;4642;51.364;6.788;2023-07-24T04:28:20;8.37;;;4.97;;
9214;SDS011;4642;51.364;6.788;2023-07-24T04:30:45;7.27;;;4.53;;
9214;SDS011;4642;51.364;6.788;2023-07-24T04:33:11;8.67;;;5.10;;
9214;SDS011;4642;51.364;6.788;2023-07-24T04:35:36;9.17;;;4.90;;
9214;SDS011;4642;51.364;6.788;2023-07-24T04:38:02;9.00;;;5.77;;
9214;SDS011;4642;51.364;6.788;2023-07-24T04:40:28;10.10;;;4.87;;
9214;SDS011;4642;51.364;6.788;2023-07-24T04:42:54;8.77;;;4.90;;
9214;SDS011;4642;51.364;6.788;2023-07-24T04:45:19;10.53;;;5.00;;
9214;SDS011;4642;51.364;6.788;2023-07-24T04:47:45;7.50;;;5.00;;
9214;SDS011;4642;51.364;6.788;2023-07-24T04:50:11;9.77;;;5.20;;
9214;SDS011;4642;51.364;6.788;2023-07-24T04:52:36;11.40;;;5.60;;
9214;SDS011;4642;51.364;6.788;2023-07-24T04:55:02;12.80;;;5.30;;
9214;SDS011;4642;51.364;6.788;2023-07-24T04:57:27;10.37;;;5.27;;
9214;SDS011;4642;51.364;6.788;2023-07-24T04:59:53;7.33;;;4.87;;
9214;SDS011;4642;51.364;6.788;2023-07-24T05:02:18;9.60;;;5.73;;
9214;SDS011;4642;51.364;6.788;2023-07-24T05:04:44;7.43;;;4.60;;
9214;SDS011;4642;51.364;6.788;2023-07-24T05:07:10;12.63;;;5.10;;
9214;SDS011;4642;51.364;6.788;2023-07-24T05:09:35;10.87;;;5.17;;
9214;SDS011;4642;51.364;6.788;2023-07-24T05:12:01;8.03;;;4.83;;
9214;SDS011;4642;51.364;6.788;2023-07-24T05:14:26;11.90;;;5.20;;
9214;SDS011;4642;51.364;6.788;2023-07-24T05:16:52;8.30;;;4.73;;
9214;SDS011;4642;51.364;6.788;2023-07-24T05:19:17;11.67;;;5.13;;
9214;SDS011;4642;51.364;6.788;2023-07-24T05:21:43;8.67;;;5.47;;
9214;SDS011;4642;51.364;6.788;2023-07-24T05:24:08;9.47;;;5.13;;
9214;SDS011;4642;51.364;6.788;2023-07-24T05:26:35;8.93;;;5.00;;
9214;SDS011;4642;51.364;6.788;2023-07-24T05:29:03;11.87;;;5.13;;
9214;SDS011;4642;51.364;6.788;2023-07-24T05:31:29;8.00;;;5.00;;
9214;SDS011;4642;51.364;6.788;2023-07-24T05:33:54;8.97;;;5.07;;
9214;SDS011;4642;51.364;6.788;2023-07-24T05:36:20;11.40;;;5.10;;
9214;SDS011;4642;51.364;6.788;2023-07-24T05:38:45;9.33;;;5.17;;
9214;SDS011;4642;51.364;6.788;2023-07-24T05:41:11;8.60;;;4.97;;
9214;SDS011;4642;51.364;6.788;2023-07-24T05:43:36;10.97;;;5.20;;
9214;SDS011;4642;51.364;6.788;2023-07-24T05:46:02;8.37;;;5.37;;
9214;SDS011;4642;51.364;6.788;2023-07-24T05:48:27;8.13;;;4.60;;
9214;SDS011;4642;51.364;6.788;2023-07-24T05:50:53;8.93;;;5.30;;
9214;SDS011;4642;51.364;6.788;2023-07-24T05:53:18;12.20;;;5.00;;
9214;SDS011;4642;51.364;6.788;2023-07-24T05:55:44;7.67;;;4.73;;
9214;SDS011;4642;51.364;6.788;2023-07-24T05:58:09;9.30;;;5.67;;
9214;SDS011;4642;51.364;6.788;2023-07-24T06:00:36;11.20;;;5.40;;
9214;SDS011;4642;51.364;6.788;2023-07-24T06:03:02;8.80;;;4.90;;
9214;SDS011;4642;51.364;6.788;2023-07-24T06:05:28;8.37;;;5.17;;
9214;SDS011;4642;51.364;6.788;2023-07-24T06:07:53;7.20;;;5.30;;
9214;SDS011;4642;51.364;6.788;2023-07-24T06:10:19;10.20;;;5.60;;
9214;SDS011;4642;51.364;6.788;2023-07-24T06:12:45;5.97;;;4.53;;
9214;SDS011;4642;51.364;6.788;2023-07-24T06:15:10;10.50;;;4.57;;
9214;SDS011;4642;51.364;6.788;2023-07-24T06:17:36;8.37;;;5.13;;
9214;SDS011;4642;51.364;6.788;2023-07-24T06:20:01;8.17;;;5.33;;
9214;SDS011;4642;51.364;6.788;2023-07-24T06:22:27;11.53;;;5.80;;
9214;SDS011;4642;51.364;6.788;2023-07-24T06:24:52;8.73;;;4.63;;
9214;SDS011;4642;51.364;6.788;2023-07-24T06:27:18;7.47;;;5.00;;
9214;SDS011;4642;51.364;6.788;2023-07-24T06:29:43;8.37;;;4.63;;
9214;SDS011;4642;51.364;6.788;2023-07-24T06:32:09;6.53;;;4.83;;
9214;SDS011;4642;51.364;6.788;2023-07-24T06:34:34;7.77;;;5.07;;
9214;SDS011;4642;51.364;6.788;2023-07-24T06:37:00;7.57;;;4.80;;
9214;SDS011;4642;51.364;6.788;2023-07-24T06:39:26;7.30;;;4.93;;
9214;SDS011;4642;51.364;6.788;2023-07-24T06:41:53;8.40;;;4.40;;
9214;SDS011;4642;51.364;6.788;2023-07-24T06:44:19;6.27;;;4.80;;
9214;SDS011;4642;51.364;6.788;2023-07-24T06:46:45;7.17;;;4.93;;
9214;SDS011;4642;51.364;6.788;2023-07-24T06:49:10;5.07;;;4.50;;
9214;SDS011;4642;51.364;6.788;2023-07-24T06:51:36;6.53;;;4.73;;
9214;SDS011;4642;51.364;6.788;2023-07-24T06:54:03;9.27;;;4.80;;
9214;SDS011;4642;51.364;6.788;2023-07-24T06:56:29;6.97;;;3.93;;
9214;SDS011;4642;51.364;6.788;2023-07-24T06:58:55;7.67;;;4.50;;
9214;SDS011;4642;51.364;6.788;2023-07-24T07:01:20;8.03;;;4.23;;
9214;SDS011;4642;51.364;6.788;2023-07-24T07:03:46;4.67;;;3.93;;
9214;SDS011;4642;51.364;6.788;2023-07-24T07:06:11;8.53;;;4.17;;
9214;SDS011;4642;51.364;6.788;2023-07-24T07:08:40;7.13;;;4.13;;
9214;SDS011;4642;51.364;6.788;2023-07-24T07:11:05;5.27;;;4.10;;
9214;SDS011;4642;51.364;6.788;2023-07-24T07:13:31;7.20;;;4.13;;
9214;SDS011;4642;51.364;6.788;2023-07-24T07:15:56;4.83;;;4.17;;
9214;SDS011;4642;51.364;6.788;2023-07-24T07:18:22;6.53;;;3.60;;
9214;SDS011;4642;51.364;6.788;2023-07-24T07:20:48;4.67;;;3.60;;
9214;SDS011;4642;51.364;6.788;2023-07-24T07:23:15;4.67;;;3.80;;
9214;SDS011;4642;51.364;6.788;2023-07-24T07:25:41;4.03;;;3.27;;
9214;SDS011;4642;51.364;6.788;2023-07-24T07:28:08;7.17;;;3.97;;
9214;SDS011;4642;51.364;6.788;2023-07-24T07:30:34;5.30;;;3.63;;
9214;SDS011;4642;51.364;6.788;2023-07-24T07:32:59;5.43;;;3.80;;
9214;SDS011;4642;51.364;6.788;2023-07-24T07:35:25;5.50;;;3.80;;
9214;SDS011;4642;51.364;6.788;2023-07-24T07:37:51;6.33;;;3.80;;
9214;SDS011;4642;51.364;6.788;2023-07-24T07:40:16;4.77;;;3.37;;
9214;SDS011;4642;51.364;6.788;2023-07-24T07:42:42;5.27;;;3.80;;
9214;SDS011;4642;51.364;6.788;2023-07-24T07:45:09;6.33;;;3.70;;
9214;SDS011;4642;51.364;6.788;2023-07-24T07:47:35;6.03;;;3.67;;
9214;SDS011;4642;51.364;6.788;2023-07-24T07:50:01;5.70;;;3.63;;
9214;SDS011;4642;51.364;6.788;2023-07-24T07:52:26;3.90;;;3.07;;
9214;SDS011;4642;51.364;6.788;2023-07-24T07:54:52;3.93;;;3.53;;
9214;SDS011;4642;51.364;6.788;2023-07-24T07:57:18;6.53;;;3.37;;
9214;SDS011;4642;51.364;6.788;2023-07-24T07:59:43;6.93;;;3.63;;
9214;SDS011;4642;51.364;6.788;2023-07-24T08:02:09;5.20;;;3.43;;
9214;SDS011;4642;51.364;6.788;2023-07-24T08:04:34;4.40;;;3.10;;
9214;SDS011;4642;51.364;6.788;2023-07-24T08:07:00;6.37;;;4.43;;
9214;SDS011;4642;51.364;6.788;2023-07-24T08:09:28;5.57;;;3.90;;
9214;SDS011;4642;51.364;6.788;2023-07-24T08:11:53;4.23;;;3.70;;
9214;SDS011;4642;51.364;6.788;2023-07-24T08:14:19;5.20;;;3.77;;
9214;SDS011;4642;51.364;6.788;2023-07-24T08:16:47;6.23;;;4.30;;
9214;SDS011;4642;51.364;6.788;2023-07-24T08:19:13;5.67;;;4.17;;
9214;SDS011;4642;51.364;6.788;2023-07-24T08:21:39;6.27;;;4.30;;
9214;SDS011;4642;51.364;6.788;2023-07-24T08:24:05;5.13;;;4.00;;
9214;SDS011;4642;51.364;6.788;2023-07-24T08:26:31;5.23;;;3.97;;
9214;SDS011;4642;51.364;6.788;2023-07-24T08:28:56;4.90;;;3.43;;
9214;SDS011;4642;51.364;6.788;2023-07-24T08:31:22;6.67;;;3.20;;
9214;SDS011;4642;51.364;6.788;2023-07-24T08:33:47;4.50;;;2.87;;
9214;SDS011;4642;51.364;6.788;2023-07-24T08:36:13;4.33;;;2.70;;
9214;SDS011;4642;51.364;6.788;2023-07-24T08:38:39;5.63;;;2.80;;
9214;SDS011;4642;51.364;6.788;2023-07-24T08:41:06;6.73;;;3.80;;
9214;SDS011;4642;51.364;6.788;2023-07-24T08:43:36;4.60;;;3.50;;
9214;SDS011;4642;51.364;6.788;2023-07-24T08:46:04;3.70;;;2.93;;
9214;SDS011;4642;51.364;6.788;2023-07-24T08:48:31;3.90;;;3.40;;
9214;SDS011;4642;51.364;6.788;2023-07-24T08:51:02;9.13;;;4.10;;
9214;SDS011;4642;51.364;6.788;2023-07-24T08:53:29;4.90;;;3.90;;
9214;SDS011;4642;51.364;6.788;2023-07-24T08:55:56;5.17;;;3.63;;
9214;SDS011;4642;51.364;6.788;2023-07-24T08:58:21;7.03;;;3.53;;
9214;SDS011;4642;51.364;6.788;2023-07-24T09:00:47;3.97;;;3.07;;
9214;SDS011;4642;51.364;6.788;2023-07-24T09:03:13;5.57;;;3.10;;
9214;SDS011;4642;51.364;6.788;2023-07-24T09:05:38;2.87;;;2.50;;
9214;SDS011;4642;51.364;6.788;2023-07-24T09:08:04;4.37;;;2.40;;
9214;SDS011;4642;51.364;6.788;2023-07-24T09:10:29;3.40;;;2.37;;
9214;SDS011;4642;51.364;6.788;2023-07-24T09:12:55;3.60;;;2.80;;
9214;SDS011;4642;51.364;6.788;2023-07-24T09:15:21;3.33;;;2.30;;
9214;SDS011;4642;51.364;6.788;2023-07-24T09:17:47;3.17;;;2.80;;
9214;SDS011;4642;51.364;6.788;2023-07-24T09:20:17;3.17;;;2.33;;
9214;SDS011;4642;51.364;6.788;2023-07-24T09:22:52;5.00;;;2.40;;
9214;SDS011;4642;51.364;6.788;2023-07-24T09:25:18;2.97;;;2.10;;
9214;SDS011;4642;51.364;6.788;2023-07-24T09:27:54;3.43;;;2.00;;
9214;SDS011;4642;51.364;6.788;2023-07-24T09:30:19;3.40;;;2.00;;
9214;SDS011;4642;51.364;6.788;2023-07-24T09:32:51;2.20;;;2.00;;
9214;SDS011;4642;51.364;6.788;2023-07-24T09:35:20;3.47;;;2.20;;
9214;SDS011;4642;51.364;6.788;2023-07-24T09:40:36;3.20;;;2.10;;
9214;SDS011;4642;51.364;6.788;2023-07-24T09:43:13;2.23;;;2.03;;
9214;SDS011;4642;51.364;6.788;2023-07-24T09:45:46;2.80;;;2.33;;
9214;SDS011;4642;51.364;6.788;2023-07-24T09:48:13;2.90;;;2.47;;
9214;SDS011;4642;51.364;6.788;2023-07-24T09:50:40;4.37;;;2.70;;
9214;SDS011;4642;51.364;6.788;2023-07-24T09:53:06;4.27;;;2.57;;
9214;SDS011;4642;51.364;6.788;2023-07-24T09:55:40;3.70;;;2.77;;
9214;SDS011;4642;51.364;6.788;2023-07-24T09:58:10;3.00;;;2.50;;
9214;SDS011;4642;51.364;6.788;2023-07-24T10:00:37;6.50;;;2.53;;
9214;SDS011;4642;51.364;6.788;2023-07-24T10:03:02;5.97;;;2.73;;
9214;SDS011;4642;51.364;6.788;2023-07-24T10:05:29;3.63;;;2.37;;
9214;SDS011;4642;51.364;6.788;2023-07-24T10:07:55;5.10;;;2.80;;
9214;SDS011;4642;51.364;6.788;2023-07-24T10:10:20;4.63;;;2.57;;
9214;SDS011;4642;51.364;6.788;2023-07-24T10:12:47;3.27;;;2.80;;
9214;SDS011;4642;51.364;6.788;2023-07-24T10:15:14;3.07;;;2.80;;
9214;SDS011;4642;51.364;6.788;2023-07-24T10:17:40;4.87;;;3.03;;
9214;SDS011;4642;51.364;6.788;2023-07-24T10:20:10;3.87;;;3.03;;
9214;SDS011;4642;51.364;6.788;2023-07-24T10:22:36;5.13;;;2.77;;
9214;SDS011;4642;51.364;6.788;2023-07-24T10:25:06;3.13;;;2.60;;
9214;SDS011;4642;51.364;6.788;2023-07-24T10:27:39;6.30;;;3.47;;
9214;SDS011;4642;51.364;6.788;2023-07-24T10:30:07;3.57;;;3.00;;
9214;SDS011;4642;51.364;6.788;2023-07-24T10:32:33;6.50;;;3.17;;
9214;SDS011;4642;51.364;6.788;2023-07-24T10:35:08;5.27;;;3.07;;
9214;SDS011;4642;51.364;6.788;2023-07-24T10:37:35;8.53;;;2.80;;
9214;SDS011;4642;51.364;6.788;2023-07-24T10:40:02;4.43;;;3.00;;
9214;SDS011;4642;51.364;6.788;2023-07-24T10:42:29;3.27;;;2.80;;
9214;SDS011;4642;51.364;6.788;2023-07-24T10:45:05;3.77;;;3.07;;
9214;SDS011;4642;51.364;6.788;2023-07-24T10:47:31;7.33;;;3.17;;
9214;SDS011;4642;51.364;6.788;2023-07-24T10:49:57;5.63;;;3.40;;
9214;SDS011;4642;51.364;6.788;2023-07-24T10:52:33;7.33;;;3.10;;
9214;SDS011;4642;51.364;6.788;2023-07-24T10:55:04;6.03;;;3.27;;
9214;SDS011;4642;51.364;6.788;2023-07-24T10:57:30;5.23;;;3.27;;
9214;SDS011;4642;51.364;6.788;2023-07-24T10:59:56;4.07;;;3.13;;
9214;SDS011;4642;51.364;6.788;2023-07-24T11:02:22;7.23;;;3.77;;
9214;SDS011;4642;51.364;6.788;2023-07-24T11:04:48;4.37;;;3.27;;
9214;SDS011;4642;51.364;6.788;2023-07-24T11:07:14;4.30;;;3.53;;
9214;SDS011;4642;51.364;6.788;2023-07-24T11:09:40;5.23;;;3.73;;
9214;SDS011;4642;51.364;6.788;2023-07-24T11:12:09;5.13;;;3.50;;
9214;SDS011;4642;51.364;6.788;2023-07-24T11:14:35;5.90;;;3.00;;
9214;SDS011;4642;51.364;6.788;2023-07-24T11:17:19;4.07;;;3.30;;
9214;SDS011;4642;51.364;6.788;2023-07-24T11:19:45;4.17;;;2.30;;
9214;SDS011;4642;51.364;6.788;2023-07-24T11:22:11;3.43;;;2.20;;
9214;SDS011;4642;51.364;6.788;2023-07-24T11:24:44;2.50;;;2.20;;
9214;SDS011;4642;51.364;6.788;2023-07-24T11:27:15;6.80;;;2.73;;
9214;SDS011;4642;51.364;6.788;2023-07-24T11:29:47;4.53;;;2.77;;
9214;SDS011;4642;51.364;6.788;2023-07-24T11:32:17;4.10;;;1.63;;
9214;SDS011;4642;51.364;6.788;2023-07-24T11:34:46;3.07;;;1.63;;
9214;SDS011;4642;51.364;6.788;2023-07-24T11:37:13;2.23;;;1.60;;
9214;SDS011;4642;51.364;6.788;2023-07-24T11:39:39;2.47;;;2.00;;
9214;SDS011;4642;51.364;6.788;2023-07-24T11:42:05;3.03;;;1.70;;
9214;SDS011;4642;51.364;6.788;2023-07-24T11:44:31;2.87;;;1.77;;
9214;SDS011;4642;51.364;6.788;2023-07-24T11:47:00;7.20;;;1.93;;
9214;SDS011;4642;51.364;6.788;2023-07-24T11:49:30;4.67;;;2.77;;
9214;SDS011;4642;51.364;6.788;2023-07-24T11:51:59;6.13;;;2.70;;
9214;SDS011;4642;51.364;6.788;2023-07-24T11:54:34;5.40;;;2.63;;
9214;SDS011;4642;51.364;6.788;2023-07-24T11:57:00;6.57;;;2.83;;
9214;SDS011;4642;51.364;6.788;2023-07-24T11:59:26;4.50;;;2.47;;
9214;SDS011;4642;51.364;6.788;2023-07-24T12:01:52;3.60;;;2.33;;
9214;SDS011;4642;51.364;6.788;2023-07-24T12:04:18;4.50;;;2.03;;
9214;SDS011;4642;51.364;6.788;2023-07-24T12:06:43;2.77;;;1.97;;
9214;SDS011;4642;51.364;6.788;2023-07-24T12:09:10;3.43;;;2.00;;
9214;SDS011;4642;51.364;6.788;2023-07-24T12:11:39;4.60;;;1.80;;
9214;SDS011;4642;51.364;6.788;2023-07-24T12:14:06;2.80;;;1.60;;
9214;SDS011;4642;51.364;6.788;2023-07-24T12:16:33;3.07;;;1.83;;
9214;SDS011;4642;51.364;6.788;2023-07-24T12:18:59;2.83;;;1.73;;
9214;SDS011;4642;51.364;6.788;2023-07-24T12:21:24;3.90;;;1.97;;
9214;SDS011;4642;51.364;6.788;2023-07-24T12:23:50;3.40;;;2.03;;
9214;SDS011;4642;51.364;6.788;2023-07-24T12:26:15;2.80;;;1.80;;
9214;SDS011;4642;51.364;6.788;2023-07-24T12:28:41;7.17;;;2.00;;
9214;SDS011;4642;51.364;6.788;2023-07-24T12:31:06;3.30;;;1.90;;
9214;SDS011;4642;51.364;6.788;2023-07-24T12:33:32;3.60;;;2.00;;
9214;SDS011;4642;51.364;6.788;2023-07-24T12:35:57;4.07;;;1.63;;
9214;SDS011;4642;51.364;6.788;2023-07-24T12:38:23;3.93;;;1.90;;
9214;SDS011;4642;51.364;6.788;2023-07-24T12:40:48;4.70;;;1.67;;
9214;SDS011;4642;51.364;6.788;2023-07-24T12:43:14;5.17;;;2.20;;
9214;SDS011;4642;51.364;6.788;2023-07-24T12:45:40;4.07;;;1.63;;
9214;SDS011;4642;51.364;6.788;2023-07-24T12:48:06;2.60;;;1.70;;
9214;SDS011;4642;51.364;6.788;2023-07-24T12:50:31;5.10;;;2.13;;
9214;SDS011;4642;51.364;6.788;2023-07-24T12:52:57;3.13;;;1.83;;
9214;SDS011;4642;51.364;6.788;2023-07-24T12:55:23;3.33;;;2.27;;
9214;SDS011;4642;51.364;6.788;2023-07-24T12:57:48;6.33;;;2.10;;
9214;SDS011;4642;51.364;6.788;2023-07-24T13:00:14;4.70;;;2.17;;
9214;SDS011;4642;51.364;6.788;2023-07-24T13:02:40;3.20;;;2.00;;
9214;SDS011;4642;51.364;6.788;2023-07-24T13:05:05;4.73;;;2.27;;
9214;SDS011;4642;51.364;6.788;2023-07-24T13:07:31;2.90;;;2.40;;
9214;SDS011;4642;51.364;6.788;2023-07-24T13:09:57;6.20;;;2.33;;
9214;SDS011;4642;51.364;6.788;2023-07-24T13:12:22;4.77;;;2.50;;
9214;SDS011;4642;51.364;6.788;2023-07-24T13:14:48;3.37;;;2.50;;
9214;SDS011;4642;51.364;6.788;2023-07-24T13:17:13;3.83;;;2.57;;
9214;SDS011;4642;51.364;6.788;2023-07-24T13:19:39;3.60;;;2.37;;
9214;SDS011;4642;51.364;6.788;2023-07-24T13:22:04;4.23;;;2.00;;
9214;SDS011;4642;51.364;6.788;2023-07-24T13:24:30;4.47;;;2.57;;
9214;SDS011;4642;51.364;6.788;2023-07-24T13:26:56;3.17;;;2.67;;
9214;SDS011;4642;51.364;6.788;2023-07-24T13:29:21;4.97;;;2.27;;
9214;SDS011;4642;51.364;6.788;2023-07-24T13:31:48;3.63;;;2.27;;
9214;SDS011;4642;51.364;6.788;2023-07-24T13:34:16;4.00;;;2.13;;
9214;SDS011;4642;51.364;6.788;2023-07-24T13:36:44;5.57;;;2.20;;
9214;SDS011;4642;51.364;6.788;2023-07-24T13:39:10;3.57;;;2.60;;
9214;SDS011;4642;51.364;6.788;2023-07-24T13:41:35;5.60;;;2.47;;
9214;SDS011;4642;51.364;6.788;2023-07-24T13:44:03;2.80;;;2.57;;
9214;SDS011;4642;51.364;6.788;2023-07-24T13:46:28;4.93;;;2.70;;
9214;SDS011;4642;51.364;6.788;2023-07-24T13:48:54;3.23;;;2.33;;
9214;SDS011;4642;51.364;6.788;2023-07-24T13:51:20;2.47;;;2.00;;
9214;SDS011;4642;51.364;6.788;2023-07-24T13:53:45;4.40;;;2.23;;
9214;SDS011;4642;51.364;6.788;2023-07-24T13:56:13;2.50;;;2.10;;
9214;SDS011;4642;51.364;6.788;2023-07-24T13:58:39;5.00;;;2.23;;
9214;SDS011;4642;51.364;6.788;2023-07-24T14:01:04;2.77;;;2.03;;
9214;SDS011;4642;51.364;6.788;2023-07-24T14:03:32;2.37;;;1.93;;
9214;SDS011;4642;51.364;6.788;2023-07-24T14:05:58;2.93;;;2.17;;
9214;SDS011;4642;51.364;6.788;2023-07-24T14:08:23;2.40;;;1.93;;
9214;SDS011;4642;51.364;6.788;2023-07-24T14:10:49;2.20;;;1.97;;
9214;SDS011;4642;51.364;6.788;2023-07-24T14:13:16;2.97;;;1.60;;
9214;SDS011;4642;51.364;6.788;2023-07-24T14:15:41;2.13;;;1.77;;
9214;SDS011;4642;51.364;6.788;2023-07-24T14:18:07;2.63;;;1.60;;
9214;SDS011;4642;51.364;6.788;2023-07-24T14:20:32;1.83;;;1.73;;
9214;SDS011;4642;51.364;6.788;2023-07-24T14:22:58;2.90;;;1.50;;
9214;SDS011;4642;51.364;6.788;2023-07-24T14:25:23;2.63;;;1.50;;
9214;SDS011;4642;51.364;6.788;2023-07-24T14:27:49;1.83;;;1.37;;
9214;SDS011;4642;51.364;6.788;2023-07-24T14:30:14;3.23;;;1.73;;
9214;SDS011;4642;51.364;6.788;2023-07-24T14:32:40;1.90;;;1.70;;
9214;SDS011;4642;51.364;6.788;2023-07-24T14:35:06;3.00;;;1.50;;
9214;SDS011;4642;51.364;6.788;2023-07-24T14:37:31;2.77;;;2.20;;
9214;SDS011;4642;51.364;6.788;2023-07-24T14:39:57;4.93;;;2.37;;
9214;SDS011;4642;51.364;6.788;2023-07-24T14:42:22;4.00;;;1.80;;
9214;SDS011;4642;51.364;6.788;2023-07-24T14:44:48;3.03;;;1.83;;
9214;SDS011;4642;51.364;6.788;2023-07-24T14:47:13;3.80;;;2.10;;
9214;SDS011;4642;51.364;6.788;2023-07-24T14:49:40;3.50;;;2.10;;
9214;SDS011;4642;51.364;6.788;2023-07-24T14:52:05;3.00;;;2.50;;
9214;SDS011;4642;51.364;6.788;2023-07-24T14:54:31;3.67;;;2.17;;
9214;SDS011;4642;51.364;6.788;2023-07-24T14:56:57;3.00;;;2.20;;
9214;SDS011;4642;51.364;6.788;2023-07-24T14:59:23;3.77;;;2.80;;
9214;SDS011;4642;51.364;6.788;2023-07-24T15:01:48;4.27;;;2.63;;
9214;SDS011;4642;51.364;6.788;2023-07-24T15:04:14;3.07;;;2.57;;
9214;SDS011;4642;51.364;6.788;2023-07-24T15:06:39;3.00;;;2.70;;
9214;SDS011;4642;51.364;6.788;2023-07-24T15:09:05;3.23;;;2.63;;
9214;SDS011;4642;51.364;6.788;2023-07-24T15:11:30;3.97;;;2.43;;
9214;SDS011;4642;51.364;6.788;2023-07-24T15:13:56;5.43;;;2.73;;
9214;SDS011;4642;51.364;6.788;2023-07-24T15:16:21;2.47;;;2.03;;